Terminal Aerodrome Forecast
Issued by NWS

Home | Current Version | Previous Version | Graphics & Text | Print | Product List | Glossary On
Versions: 1 2 3 4 5 6 7 8 9 10 11 12 13 14 15 16 17 18
000
FTUS43 KICT 251729 AAA
TAFRSL
TAF AMD
KRSL 251729Z 2517/2618 35014KT P6SM BKN020
     FM252100 36011KT P6SM BKN035
     FM260100 03004KT P6SM FEW250
     FM260500 19004KT P6SM FEW250
     FM261600 29013KT P6SM SCT200=

USA.gov is the U.S. government's official web portal to all federal, state and local government web resources and services.